CYHU/YHU METAR and TAF weather

Enter ICAO airport designator
Station Type Date Time Source
CYHU METAR 2022/07/03 14:00 UTC NOAA

CYHU 031400Z AUTO 26004KT 220V320 9SM SCT071 21/10 A2997 RMK SLP151 DENSITY ALT 800FT


Station Type Date Time Source
CYHU Decoded METAR 2022/07/03 14:00 UTC NOAA

Saint Hubert Airport , Canada (CYHU) 45-31N 073-25W
Jul 03, 2022 - 10:00 AM EDT / 2022.07.03 1400 UTC
Wind: from the W (260 degrees) at 5 MPH (4 KT) (direction variable):0
Visibility: 9 mile(s):0
Sky conditions: partly cloudy
Temperature: 69 F (21 C)
Dew Point: 50 F (10 C)
Relative Humidity: 49%
Pressure (altimeter): 29.97 in. Hg (1014 hPa)
ob: CYHU 031400Z AUTO 26004KT 220V320 9SM SCT071 21/10 A2997 RMK SLP151 DENSITY ALT 800FT
cycle: 14

Station Type Date Time Source
CYHU TAF 2022/07/03 12:45 UTC NOAA

TAF CYHU 031140Z 0312/0412 25010KT P6SM FEW070
BECMG 0314/0316 27015G25KT
FM031800 27015G25KT P6SM BKN070
FM040000 26012G22KT P6SM SCT070
BECMG 0401/0403 30008KT
RMK FCST BASED ON AUTO OBS. NXT FCST BY 031800Z

Example: see airport list